Ankeny, Iowa
Current Conditions -  °F | °C
As of 6:35 PM on Friday 31 Oct 2014 (Local Time) from KIKV Reporting Station
Clear Clear  
Wind Chill: -1°   Ceiling: Unl
Heat Index:   Visibility: 10mi
Dew Point: -7°   Wind: 7mph
Humidity: 52%   Direction: 20°NNE
Pressure: 30.47"   Gusts: NA
Location:  41.73°N, 93.6°W
Report Text: KIKV 312335Z AUTO 02006KT 10SM CLR 02/M07 A3047 RMK AO2
Loading
Personal Weather Stations






























Interactive Weather Map
Tropical Storm Tracking
New forecast layout! Learn more

10-Day Weather Forecast

Advertisements
Track Severe Weather on mobile